sensor_id;sensor_type;location;lat;lon;timestamp;P1;P2;P0
74333;PMS5003;62753;40.394;-80.022;2023-04-01T00:01:06;14;14;
74333;PMS5003;62753;40.394;-80.022;2023-04-01T00:03:32;14;13;
74333;PMS5003;62753;40.394;-80.022;2023-04-01T00:05:57;15;12;
74333;PMS5003;62753;40.394;-80.022;2023-04-01T00:08:22;12;12;
74333;PMS5003;62753;40.394;-80.022;2023-04-01T00:10:48;15;13;
74333;PMS5003;62753;40.394;-80.022;2023-04-01T00:13:13;13;12;
74333;PMS5003;62753;40.394;-80.022;2023-04-01T00:15:38;13;13;
74333;PMS5003;62753;40.394;-80.022;2023-04-01T00:18:04;16;15;
74333;PMS5003;62753;40.394;-80.022;2023-04-01T00:20:30;16;14;
74333;PMS5003;62753;40.394;-80.022;2023-04-01T00:22:55;12;12;
74333;PMS5003;62753;40.394;-80.022;2023-04-01T00:25:20;14;13;
74333;PMS5003;62753;40.394;-80.022;2023-04-01T00:27:45;14;14;
74333;PMS5003;62753;40.394;-80.022;2023-04-01T00:30:11;15;13;
74333;PMS5003;62753;40.394;-80.022;2023-04-01T00:32:36;15;13;
74333;PMS5003;62753;40.394;-80.022;2023-04-01T00:35:01;23;19;
74333;PMS5003;62753;40.394;-80.022;2023-04-01T00:37:27;15;13;
74333;PMS5003;62753;40.394;-80.022;2023-04-01T00:39:52;14;13;
74333;PMS5003;62753;40.394;-80.022;2023-04-01T00:42:17;14;12;
74333;PMS5003;62753;40.394;-80.022;2023-04-01T00:44:42;14;14;
74333;PMS5003;62753;40.394;-80.022;2023-04-01T00:47:07;17;13;
74333;PMS5003;62753;40.394;-80.022;2023-04-01T00:49:34;18;15;
74333;PMS5003;62753;40.394;-80.022;2023-04-01T00:51:59;18;13;
74333;PMS5003;62753;40.394;-80.022;2023-04-01T00:54:24;19;16;
74333;PMS5003;62753;40.394;-80.022;2023-04-01T00:56:50;15;14;
74333;PMS5003;62753;40.394;-80.022;2023-04-01T00:59:15;15;13;
74333;PMS5003;62753;40.394;-80.022;2023-04-01T01:01:40;14;13;
74333;PMS5003;62753;40.394;-80.022;2023-04-01T01:04:05;16;15;
74333;PMS5003;62753;40.394;-80.022;2023-04-01T01:06:34;20;17;
74333;PMS5003;62753;40.394;-80.022;2023-04-01T01:09:00;14;13;
74333;PMS5003;62753;40.394;-80.022;2023-04-01T01:11:22;17;14;
74333;PMS5003;62753;40.394;-80.022;2023-04-01T01:13:47;16;15;
74333;PMS5003;62753;40.394;-80.022;2023-04-01T01:16:13;17;16;
74333;PMS5003;62753;40.394;-80.022;2023-04-01T01:18:38;15;14;
74333;PMS5003;62753;40.394;-80.022;2023-04-01T01:21:07;14;14;
74333;PMS5003;62753;40.394;-80.022;2023-04-01T01:23:32;11;11;
74333;PMS5003;62753;40.394;-80.022;2023-04-01T01:25:55;13;13;
74333;PMS5003;62753;40.394;-80.022;2023-04-01T01:28:24;16;16;
74333;PMS5003;62753;40.394;-80.022;2023-04-01T01:30:43;13;13;
74333;PMS5003;62753;40.394;-80.022;2023-04-01T01:33:12;19;16;
74333;PMS5003;62753;40.394;-80.022;2023-04-01T01:35:34;16;16;
74333;PMS5003;62753;40.394;-80.022;2023-04-01T01:38:00;13;13;
74333;PMS5003;62753;40.394;-80.022;2023-04-01T01:40:24;16;16;
74333;PMS5003;62753;40.394;-80.022;2023-04-01T01:42:50;20;16;
74333;PMS5003;62753;40.394;-80.022;2023-04-01T01:45:15;15;14;
74333;PMS5003;62753;40.394;-80.022;2023-04-01T01:47:40;15;14;
74333;PMS5003;62753;40.394;-80.022;2023-04-01T01:50:05;13;13;
74333;PMS5003;62753;40.394;-80.022;2023-04-01T01:52:30;17;14;
74333;PMS5003;62753;40.394;-80.022;2023-04-01T01:54:56;14;14;
74333;PMS5003;62753;40.394;-80.022;2023-04-01T01:57:22;13;12;
74333;PMS5003;62753;40.394;-80.022;2023-04-01T01:59:46;16;13;
74333;PMS5003;62753;40.394;-80.022;2023-04-01T02:02:12;17;17;
74333;PMS5003;62753;40.394;-80.022;2023-04-01T02:04:38;13;13;
74333;PMS5003;62753;40.394;-80.022;2023-04-01T02:07:03;15;13;
74333;PMS5003;62753;40.394;-80.022;2023-04-01T02:09:28;16;15;
74333;PMS5003;62753;40.394;-80.022;2023-04-01T02:11:55;19;17;
74333;PMS5003;62753;40.394;-80.022;2023-04-01T02:14:19;16;15;
74333;PMS5003;62753;40.394;-80.022;2023-04-01T02:16:45;17;15;
74333;PMS5003;62753;40.394;-80.022;2023-04-01T02:19:08;13;12;
74333;PMS5003;62753;40.394;-80.022;2023-04-01T02:21:33;13;13;
74333;PMS5003;62753;40.394;-80.022;2023-04-01T02:23:59;14;13;
74333;PMS5003;62753;40.394;-80.022;2023-04-01T02:26:24;16;15;
74333;PMS5003;62753;40.394;-80.022;2023-04-01T02:28:49;12;12;
74333;PMS5003;62753;40.394;-80.022;2023-04-01T02:31:14;18;16;
74333;PMS5003;62753;40.394;-80.022;2023-04-01T02:33:40;14;12;
74333;PMS5003;62753;40.394;-80.022;2023-04-01T02:36:05;15;15;
74333;PMS5003;62753;40.394;-80.022;2023-04-01T02:38:30;16;15;
74333;PMS5003;62753;40.394;-80.022;2023-04-01T02:40:57;14;13;
74333;PMS5003;62753;40.394;-80.022;2023-04-01T02:43:21;18;16;
74333;PMS5003;62753;40.394;-80.022;2023-04-01T02:45:46;14;13;
74333;PMS5003;62753;40.394;-80.022;2023-04-01T02:48:12;16;15;
74333;PMS5003;62753;40.394;-80.022;2023-04-01T02:50:37;15;14;
74333;PMS5003;62753;40.394;-80.022;2023-04-01T02:53:02;15;14;
74333;PMS5003;62753;40.394;-80.022;2023-04-01T02:55:27;16;15;
74333;PMS5003;62753;40.394;-80.022;2023-04-01T02:57:52;14;14;
74333;PMS5003;62753;40.394;-80.022;2023-04-01T03:00:18;13;13;
74333;PMS5003;62753;40.394;-80.022;2023-04-01T03:02:43;14;13;
74333;PMS5003;62753;40.394;-80.022;2023-04-01T03:05:08;16;15;
74333;PMS5003;62753;40.394;-80.022;2023-04-01T03:07:34;15;15;
74333;PMS5003;62753;40.394;-80.022;2023-04-01T03:09:59;16;15;
74333;PMS5003;62753;40.394;-80.022;2023-04-01T03:12:24;15;15;
74333;PMS5003;62753;40.394;-80.022;2023-04-01T03:14:49;14;13;
74333;PMS5003;62753;40.394;-80.022;2023-04-01T03:17:14;16;15;
74333;PMS5003;62753;40.394;-80.022;2023-04-01T03:19:39;17;16;
74333;PMS5003;62753;40.394;-80.022;2023-04-01T03:22:04;14;13;
74333;PMS5003;62753;40.394;-80.022;2023-04-01T03:24:30;18;16;
74333;PMS5003;62753;40.394;-80.022;2023-04-01T03:26:55;15;14;
74333;PMS5003;62753;40.394;-80.022;2023-04-01T03:29:20;16;15;
74333;PMS5003;62753;40.394;-80.022;2023-04-01T03:31:45;14;13;
74333;PMS5003;62753;40.394;-80.022;2023-04-01T03:34:10;16;14;
74333;PMS5003;62753;40.394;-80.022;2023-04-01T03:36:36;13;13;
74333;PMS5003;62753;40.394;-80.022;2023-04-01T03:39:01;15;13;
74333;PMS5003;62753;40.394;-80.022;2023-04-01T03:41:26;15;15;
74333;PMS5003;62753;40.394;-80.022;2023-04-01T03:43:52;17;13;
74333;PMS5003;62753;40.394;-80.022;2023-04-01T03:46:17;15;14;
74333;PMS5003;62753;40.394;-80.022;2023-04-01T03:48:42;14;13;
74333;PMS5003;62753;40.394;-80.022;2023-04-01T03:51:12;17;13;
74333;PMS5003;62753;40.394;-80.022;2023-04-01T03:53:32;18;16;
74333;PMS5003;62753;40.394;-80.022;2023-04-01T03:55:58;13;13;
74333;PMS5003;62753;40.394;-80.022;2023-04-01T03:58:23;17;17;
74333;PMS5003;62753;40.394;-80.022;2023-04-01T04:00:48;16;16;
74333;PMS5003;62753;40.394;-80.022;2023-04-01T04:03:14;15;14;
74333;PMS5003;62753;40.394;-80.022;2023-04-01T04:08:04;18;15;
74333;PMS5003;62753;40.394;-80.022;2023-04-01T04:10:30;15;15;
74333;PMS5003;62753;40.394;-80.022;2023-04-01T04:12:55;16;16;
74333;PMS5003;62753;40.394;-80.022;2023-04-01T04:15:20;16;15;
74333;PMS5003;62753;40.394;-80.022;2023-04-01T04:17:45;17;16;
74333;PMS5003;62753;40.394;-80.022;2023-04-01T04:20:11;15;14;
74333;PMS5003;62753;40.394;-80.022;2023-04-01T04:22:35;16;16;
74333;PMS5003;62753;40.394;-80.022;2023-04-01T04:25:01;18;15;
74333;PMS5003;62753;40.394;-80.022;2023-04-01T04:27:26;13;12;
74333;PMS5003;62753;40.394;-80.022;2023-04-01T04:29:52;16;14;
74333;PMS5003;62753;40.394;-80.022;2023-04-01T04:32:17;16;13;
74333;PMS5003;62753;40.394;-80.022;2023-04-01T04:34:43;13;13;
74333;PMS5003;62753;40.394;-80.022;2023-04-01T04:37:08;19;17;
74333;PMS5003;62753;40.394;-80.022;2023-04-01T04:39:33;14;13;
74333;PMS5003;62753;40.394;-80.022;2023-04-01T04:41:59;16;15;
74333;PMS5003;62753;40.394;-80.022;2023-04-01T04:44:24;13;13;
74333;PMS5003;62753;40.394;-80.022;2023-04-01T04:46:49;14;13;
74333;PMS5003;62753;40.394;-80.022;2023-04-01T04:49:15;15;14;
74333;PMS5003;62753;40.394;-80.022;2023-04-01T04:51:40;15;15;
74333;PMS5003;62753;40.394;-80.022;2023-04-01T04:54:06;18;13;
74333;PMS5003;62753;40.394;-80.022;2023-04-01T04:56:31;17;14;
74333;PMS5003;62753;40.394;-80.022;2023-04-01T04:58:57;15;14;
74333;PMS5003;62753;40.394;-80.022;2023-04-01T05:01:22;13;13;
74333;PMS5003;62753;40.394;-80.022;2023-04-01T05:03:48;17;14;
74333;PMS5003;62753;40.394;-80.022;2023-04-01T05:06:14;15;14;
74333;PMS5003;62753;40.394;-80.022;2023-04-01T05:08:38;13;13;
74333;PMS5003;62753;40.394;-80.022;2023-04-01T05:11:06;16;15;
74333;PMS5003;62753;40.394;-80.022;2023-04-01T05:13:29;16;16;
74333;PMS5003;62753;40.394;-80.022;2023-04-01T05:15:55;15;14;
74333;PMS5003;62753;40.394;-80.022;2023-04-01T05:18:20;16;16;
74333;PMS5003;62753;40.394;-80.022;2023-04-01T05:20:46;15;13;
74333;PMS5003;62753;40.394;-80.022;2023-04-01T05:23:11;13;12;
74333;PMS5003;62753;40.394;-80.022;2023-04-01T05:25:37;15;14;
74333;PMS5003;62753;40.394;-80.022;2023-04-01T05:28:01;14;12;
74333;PMS5003;62753;40.394;-80.022;2023-04-01T05:30:27;13;12;
74333;PMS5003;62753;40.394;-80.022;2023-04-01T05:32:53;13;12;
74333;PMS5003;62753;40.394;-80.022;2023-04-01T05:35:18;13;13;
74333;PMS5003;62753;40.394;-80.022;2023-04-01T05:37:44;14;12;
74333;PMS5003;62753;40.394;-80.022;2023-04-01T05:40:10;14;13;
74333;PMS5003;62753;40.394;-80.022;2023-04-01T05:42:35;13;13;
74333;PMS5003;62753;40.394;-80.022;2023-04-01T05:45:00;17;16;
74333;PMS5003;62753;40.394;-80.022;2023-04-01T05:47:25;13;13;
74333;PMS5003;62753;40.394;-80.022;2023-04-01T05:49:51;12;12;
74333;PMS5003;62753;40.394;-80.022;2023-04-01T05:52:16;13;13;
74333;PMS5003;62753;40.394;-80.022;2023-04-01T05:54:41;16;16;
74333;PMS5003;62753;40.394;-80.022;2023-04-01T05:57:07;15;14;
74333;PMS5003;62753;40.394;-80.022;2023-04-01T05:59:32;15;15;
74333;PMS5003;62753;40.394;-80.022;2023-04-01T06:01:58;15;14;
74333;PMS5003;62753;40.394;-80.022;2023-04-01T06:04:23;13;13;
74333;PMS5003;62753;40.394;-80.022;2023-04-01T06:06:49;11;10;
74333;PMS5003;62753;40.394;-80.022;2023-04-01T06:09:15;16;12;
74333;PMS5003;62753;40.394;-80.022;2023-04-01T06:11:41;20;14;
74333;PMS5003;62753;40.394;-80.022;2023-04-01T06:14:09;12;12;
74333;PMS5003;62753;40.394;-80.022;2023-04-01T06:16:32;15;14;
74333;PMS5003;62753;40.394;-80.022;2023-04-01T06:18:58;11;11;
74333;PMS5003;62753;40.394;-80.022;2023-04-01T06:21:26;13;13;
74333;PMS5003;62753;40.394;-80.022;2023-04-01T06:23:50;18;12;
74333;PMS5003;62753;40.394;-80.022;2023-04-01T06:26:14;12;12;
74333;PMS5003;62753;40.394;-80.022;2023-04-01T06:28:41;16;10;
74333;PMS5003;62753;40.394;-80.022;2023-04-01T06:31:04;14;12;
74333;PMS5003;62753;40.394;-80.022;2023-04-01T06:33:41;15;14;
74333;PMS5003;62753;40.394;-80.022;2023-04-01T06:35:59;17;13;
74333;PMS5003;62753;40.394;-80.022;2023-04-01T06:38:28;15;14;
74333;PMS5003;62753;40.394;-80.022;2023-04-01T06:40:56;14;13;
74333;PMS5003;62753;40.394;-80.022;2023-04-01T06:43:11;14;13;
74333;PMS5003;62753;40.394;-80.022;2023-04-01T06:45:37;14;12;
74333;PMS5003;62753;40.394;-80.022;2023-04-01T06:48:04;18;13;
74333;PMS5003;62753;40.394;-80.022;2023-04-01T06:50:28;13;11;
74333;PMS5003;62753;40.394;-80.022;2023-04-01T06:52:54;13;12;
74333;PMS5003;62753;40.394;-80.022;2023-04-01T06:55:20;15;14;
74333;PMS5003;62753;40.394;-80.022;2023-04-01T06:57:42;12;12;
74333;PMS5003;62753;40.394;-80.022;2023-04-01T07:00:11;14;12;
74333;PMS5003;62753;40.394;-80.022;2023-04-01T07:02:34;17;15;
74333;PMS5003;62753;40.394;-80.022;2023-04-01T07:04:58;15;15;
74333;PMS5003;62753;40.394;-80.022;2023-04-01T07:07:26;14;14;
74333;PMS5003;62753;40.394;-80.022;2023-04-01T07:09:49;12;12;
74333;PMS5003;62753;40.394;-80.022;2023-04-01T07:12:15;15;13;
74333;PMS5003;62753;40.394;-80.022;2023-04-01T07:14:40;13;12;
74333;PMS5003;62753;40.394;-80.022;2023-04-01T07:17:06;14;14;
74333;PMS5003;62753;40.394;-80.022;2023-04-01T07:19:31;15;14;
74333;PMS5003;62753;40.394;-80.022;2023-04-01T07:21:58;14;14;
74333;PMS5003;62753;40.394;-80.022;2023-04-01T07:24:22;12;12;
74333;PMS5003;62753;40.394;-80.022;2023-04-01T07:26:47;11;11;
74333;PMS5003;62753;40.394;-80.022;2023-04-01T07:29:13;14;13;
74333;PMS5003;62753;40.394;-80.022;2023-04-01T07:31:43;16;14;
74333;PMS5003;62753;40.394;-80.022;2023-04-01T07:34:04;13;12;
74333;PMS5003;62753;40.394;-80.022;2023-04-01T07:36:31;12;12;
74333;PMS5003;62753;40.394;-80.022;2023-04-01T07:38:57;18;13;
74333;PMS5003;62753;40.394;-80.022;2023-04-01T07:41:23;16;13;
74333;PMS5003;62753;40.394;-80.022;2023-04-01T07:43:49;14;14;
74333;PMS5003;62753;40.394;-80.022;2023-04-01T07:46:13;15;15;
74333;PMS5003;62753;40.394;-80.022;2023-04-01T07:48:38;16;14;
74333;PMS5003;62753;40.394;-80.022;2023-04-01T07:51:01;13;13;
74333;PMS5003;62753;40.394;-80.022;2023-04-01T07:53:27;15;15;
74333;PMS5003;62753;40.394;-80.022;2023-04-01T07:55:54;21;15;
74333;PMS5003;62753;40.394;-80.022;2023-04-01T07:58:18;16;15;
74333;PMS5003;62753;40.394;-80.022;2023-04-01T08:00:44;15;15;
74333;PMS5003;62753;40.394;-80.022;2023-04-01T08:03:11;15;13;
74333;PMS5003;62753;40.394;-80.022;2023-04-01T08:05:33;15;15;
74333;PMS5003;62753;40.394;-80.022;2023-04-01T08:07:59;19;17;
74333;PMS5003;62753;40.394;-80.022;2023-04-01T08:10:24;20;16;
74333;PMS5003;62753;40.394;-80.022;2023-04-01T08:12:50;15;12;
74333;PMS5003;62753;40.394;-80.022;2023-04-01T08:15:16;15;14;
74333;PMS5003;62753;40.394;-80.022;2023-04-01T08:17:42;16;14;
74333;PMS5003;62753;40.394;-80.022;2023-04-01T08:20:10;18;14;
74333;PMS5003;62753;40.394;-80.022;2023-04-01T08:22:33;13;13;
74333;PMS5003;62753;40.394;-80.022;2023-04-01T08:24:57;14;13;
74333;PMS5003;62753;40.394;-80.022;2023-04-01T08:27:22;12;12;
74333;PMS5003;62753;40.394;-80.022;2023-04-01T08:29:48;16;15;
74333;PMS5003;62753;40.394;-80.022;2023-04-01T08:32:12;13;12;
74333;PMS5003;62753;40.394;-80.022;2023-04-01T08:34:38;14;13;
74333;PMS5003;62753;40.394;-80.022;2023-04-01T08:37:03;16;15;
74333;PMS5003;62753;40.394;-80.022;2023-04-01T08:39:28;14;14;
74333;PMS5003;62753;40.394;-80.022;2023-04-01T08:44:27;17;17;
74333;PMS5003;62753;40.394;-80.022;2023-04-01T08:46:50;17;14;
74333;PMS5003;62753;40.394;-80.022;2023-04-01T08:49:13;16;16;
74333;PMS5003;62753;40.394;-80.022;2023-04-01T08:54:04;23;20;
74333;PMS5003;62753;40.394;-80.022;2023-04-01T08:56:26;16;15;
74333;PMS5003;62753;40.394;-80.022;2023-04-01T08:58:55;17;16;
74333;PMS5003;62753;40.394;-80.022;2023-04-01T09:01:19;18;17;
74333;PMS5003;62753;40.394;-80.022;2023-04-01T09:03:44;18;13;
74333;PMS5003;62753;40.394;-80.022;2023-04-01T09:08:36;11;10;
74333;PMS5003;62753;40.394;-80.022;2023-04-01T09:10:59;10;10;
74333;PMS5003;62753;40.394;-80.022;2023-04-01T09:13:27;15;11;
74333;PMS5003;62753;40.394;-80.022;2023-04-01T09:15:51;8;8;
74333;PMS5003;62753;40.394;-80.022;2023-04-01T09:20:43;8;8;
74333;PMS5003;62753;40.394;-80.022;2023-04-01T09:23:15;7;7;
74333;PMS5003;62753;40.394;-80.022;2023-04-01T09:25:31;6;6;
74333;PMS5003;62753;40.394;-80.022;2023-04-01T09:27:56;6;6;
74333;PMS5003;62753;40.394;-80.022;2023-04-01T09:30:32;7;6;
74333;PMS5003;62753;40.394;-80.022;2023-04-01T09:32:51;6;6;
74333;PMS5003;62753;40.394;-80.022;2023-04-01T09:35:16;9;7;
74333;PMS5003;62753;40.394;-80.022;2023-04-01T09:37:38;8;8;
74333;PMS5003;62753;40.394;-80.022;2023-04-01T09:42:32;8;8;
74333;PMS5003;62753;40.394;-80.022;2023-04-01T09:44:53;7;7;
74333;PMS5003;62753;40.394;-80.022;2023-04-01T09:47:22;6;6;
74333;PMS5003;62753;40.394;-80.022;2023-04-01T09:49:45;7;6;
74333;PMS5003;62753;40.394;-80.022;2023-04-01T09:52:10;9;6;
74333;PMS5003;62753;40.394;-80.022;2023-04-01T09:54:38;9;9;
74333;PMS5003;62753;40.394;-80.022;2023-04-01T09:57:03;12;8;
74333;PMS5003;62753;40.394;-80.022;2023-04-01T10:06:51;7;6;
74333;PMS5003;62753;40.394;-80.022;2023-04-01T10:16:28;8;7;
74333;PMS5003;62753;40.394;-80.022;2023-04-01T10:18:57;8;7;
74333;PMS5003;62753;40.394;-80.022;2023-04-01T10:21:16;5;5;
74333;PMS5003;62753;40.394;-80.022;2023-04-01T10:26:06;8;7;
74333;PMS5003;62753;40.394;-80.022;2023-04-01T10:28:32;8;8;
74333;PMS5003;62753;40.394;-80.022;2023-04-01T10:40:36;6;6;
74333;PMS5003;62753;40.394;-80.022;2023-04-01T10:52:51;6;6;
74333;PMS5003;62753;40.394;-80.022;2023-04-01T10:57:37;8;7;
74333;PMS5003;62753;40.394;-80.022;2023-04-01T11:00:06;9;8;
74333;PMS5003;62753;40.394;-80.022;2023-04-01T11:12:09;7;6;
74333;PMS5003;62753;40.394;-80.022;2023-04-01T11:16:59;7;6;
74333;PMS5003;62753;40.394;-80.022;2023-04-01T11:24:13;7;7;
74333;PMS5003;62753;40.394;-80.022;2023-04-01T11:26:38;7;5;
74333;PMS5003;62753;40.394;-80.022;2023-04-01T11:29:04;4;4;
74333;PMS5003;62753;40.394;-80.022;2023-04-01T11:31:29;7;7;
74333;PMS5003;62753;40.394;-80.022;2023-04-01T11:33:52;7;6;
74333;PMS5003;62753;40.394;-80.022;2023-04-01T11:36:19;7;7;
74333;PMS5003;62753;40.394;-80.022;2023-04-01T11:38:46;6;5;
74333;PMS5003;62753;40.394;-80.022;2023-04-01T11:41:10;6;5;
74333;PMS5003;62753;40.394;-80.022;2023-04-01T11:43:34;6;6;
74333;PMS5003;62753;40.394;-80.022;2023-04-01T11:45:58;6;6;
74333;PMS5003;62753;40.394;-80.022;2023-04-01T11:48:26;9;7;
74333;PMS5003;62753;40.394;-80.022;2023-04-01T11:50:53;7;6;
74333;PMS5003;62753;40.394;-80.022;2023-04-01T11:53:15;9;7;
74333;PMS5003;62753;40.394;-80.022;2023-04-01T11:55:41;6;6;
74333;PMS5003;62753;40.394;-80.022;2023-04-01T11:58:08;4;4;
74333;PMS5003;62753;40.394;-80.022;2023-04-01T12:03:01;6;4;
74333;PMS5003;62753;40.394;-80.022;2023-04-01T12:05:25;5;5;
74333;PMS5003;62753;40.394;-80.022;2023-04-01T12:10:14;6;5;
74333;PMS5003;62753;40.394;-80.022;2023-04-01T12:12:37;4;4;
74333;PMS5003;62753;40.394;-80.022;2023-04-01T12:15:05;6;5;
74333;PMS5003;62753;40.394;-80.022;2023-04-01T12:17:29;5;5;
74333;PMS5003;62753;40.394;-80.022;2023-04-01T12:19:54;4;4;
74333;PMS5003;62753;40.394;-80.022;2023-04-01T12:22:23;6;6;
74333;PMS5003;62753;40.394;-80.022;2023-04-01T12:24:46;5;4;
74333;PMS5003;62753;40.394;-80.022;2023-04-01T12:27:12;6;5;
74333;PMS5003;62753;40.394;-80.022;2023-04-01T12:29:41;5;5;
74333;PMS5003;62753;40.394;-80.022;2023-04-01T12:32:00;5;5;
74333;PMS5003;62753;40.394;-80.022;2023-04-01T12:36:52;8;8;
74333;PMS5003;62753;40.394;-80.022;2023-04-01T12:39:20;8;8;
74333;PMS5003;62753;40.394;-80.022;2023-04-01T12:41:42;7;6;
74333;PMS5003;62753;40.394;-80.022;2023-04-01T12:46:32;6;6;
74333;PMS5003;62753;40.394;-80.022;2023-04-01T12:49:02;10;8;
74333;PMS5003;62753;40.394;-80.022;2023-04-01T12:51:26;5;5;
74333;PMS5003;62753;40.394;-80.022;2023-04-01T12:53:54;5;4;
74333;PMS5003;62753;40.394;-80.022;2023-04-01T12:56:14;6;4;
74333;PMS5003;62753;40.394;-80.022;2023-04-01T13:01:09;7;6;
74333;PMS5003;62753;40.394;-80.022;2023-04-01T13:03:40;5;5;
74333;PMS5003;62753;40.394;-80.022;2023-04-01T13:06:03;5;4;
74333;PMS5003;62753;40.394;-80.022;2023-04-01T13:08:23;5;4;
74333;PMS5003;62753;40.394;-80.022;2023-04-01T13:10:50;6;6;
74333;PMS5003;62753;40.394;-80.022;2023-04-01T13:15:37;6;4;
74333;PMS5003;62753;40.394;-80.022;2023-04-01T13:18:04;5;5;
74333;PMS5003;62753;40.394;-80.022;2023-04-01T13:20:35;6;6;
74333;PMS5003;62753;40.394;-80.022;2023-04-01T13:22:54;5;4;
74333;PMS5003;62753;40.394;-80.022;2023-04-01T13:25:19;8;6;
74333;PMS5003;62753;40.394;-80.022;2023-04-01T13:27:42;6;6;
74333;PMS5003;62753;40.394;-80.022;2023-04-01T13:30:16;7;5;
74333;PMS5003;62753;40.394;-80.022;2023-04-01T13:32:34;4;2;
74333;PMS5003;62753;40.394;-80.022;2023-04-01T13:35:05;10;7;
74333;PMS5003;62753;40.394;-80.022;2023-04-01T13:37:26;10;7;
74333;PMS5003;62753;40.394;-80.022;2023-04-01T13:39:52;4;3;
74333;PMS5003;62753;40.394;-80.022;2023-04-01T13:42:16;3;3;
74333;PMS5003;62753;40.394;-80.022;2023-04-01T13:44:40;9;6;
74333;PMS5003;62753;40.394;-80.022;2023-04-01T13:47:09;5;4;
74333;PMS5003;62753;40.394;-80.022;2023-04-01T13:49:37;4;4;
74333;PMS5003;62753;40.394;-80.022;2023-04-01T13:51:58;5;5;
74333;PMS5003;62753;40.394;-80.022;2023-04-01T13:54:26;6;5;
74333;PMS5003;62753;40.394;-80.022;2023-04-01T13:56:48;5;5;
74333;PMS5003;62753;40.394;-80.022;2023-04-01T14:01:38;5;5;
74333;PMS5003;62753;40.394;-80.022;2023-04-01T14:06:28;7;7;
74333;PMS5003;62753;40.394;-80.022;2023-04-01T14:08:58;6;6;
74333;PMS5003;62753;40.394;-80.022;2023-04-01T14:11:19;4;4;
74333;PMS5003;62753;40.394;-80.022;2023-04-01T14:13:46;4;3;
74333;PMS5003;62753;40.394;-80.022;2023-04-01T14:16:13;4;3;
74333;PMS5003;62753;40.394;-80.022;2023-04-01T14:18:38;6;6;
74333;PMS5003;62753;40.394;-80.022;2023-04-01T14:21:02;4;3;
74333;PMS5003;62753;40.394;-80.022;2023-04-01T14:23:28;4;4;
74333;PMS5003;62753;40.394;-80.022;2023-04-01T14:25:58;6;6;
74333;PMS5003;62753;40.394;-80.022;2023-04-01T14:28:15;5;5;
74333;PMS5003;62753;40.394;-80.022;2023-04-01T14:30:41;7;6;
74333;PMS5003;62753;40.394;-80.022;2023-04-01T14:33:06;3;3;
74333;PMS5003;62753;40.394;-80.022;2023-04-01T14:35:33;6;5;
74333;PMS5003;62753;40.394;-80.022;2023-04-01T14:37:58;3;3;
74333;PMS5003;62753;40.394;-80.022;2023-04-01T14:40:21;4;4;
74333;PMS5003;62753;40.394;-80.022;2023-04-01T14:47:41;6;5;
74333;PMS5003;62753;40.394;-80.022;2023-04-01T14:50:06;4;4;
74333;PMS5003;62753;40.394;-80.022;2023-04-01T14:52:27;5;5;
74333;PMS5003;62753;40.394;-80.022;2023-04-01T14:54:51;5;5;
74333;PMS5003;62753;40.394;-80.022;2023-04-01T14:57:20;4;3;
74333;PMS5003;62753;40.394;-80.022;2023-04-01T14:59:45;5;4;
74333;PMS5003;62753;40.394;-80.022;2023-04-01T15:02:10;3;3;
74333;PMS5003;62753;40.394;-80.022;2023-04-01T15:07:00;6;5;
74333;PMS5003;62753;40.394;-80.022;2023-04-01T15:09:22;4;4;
74333;PMS5003;62753;40.394;-80.022;2023-04-01T15:11:49;4;4;
74333;PMS5003;62753;40.394;-80.022;2023-04-01T15:14:16;5;4;
74333;PMS5003;62753;40.394;-80.022;2023-04-01T15:16:40;5;4;
74333;PMS5003;62753;40.394;-80.022;2023-04-01T15:19:07;5;5;
74333;PMS5003;62753;40.394;-80.022;2023-04-01T15:21:34;5;4;
74333;PMS5003;62753;40.394;-80.022;2023-04-01T15:23:56;3;3;
74333;PMS5003;62753;40.394;-80.022;2023-04-01T15:26:21;5;4;
74333;PMS5003;62753;40.394;-80.022;2023-04-01T15:28:45;4;4;
74333;PMS5003;62753;40.394;-80.022;2023-04-01T15:31:10;7;6;
74333;PMS5003;62753;40.394;-80.022;2023-04-01T15:33:38;6;6;
74333;PMS5003;62753;40.394;-80.022;2023-04-01T15:36:02;4;4;
74333;PMS5003;62753;40.394;-80.022;2023-04-01T15:38:27;6;6;
74333;PMS5003;62753;40.394;-80.022;2023-04-01T15:40:51;6;6;
74333;PMS5003;62753;40.394;-80.022;2023-04-01T15:43:18;7;6;
74333;PMS5003;62753;40.394;-80.022;2023-04-01T15:45:43;8;7;
74333;PMS5003;62753;40.394;-80.022;2023-04-01T15:48:10;5;5;
74333;PMS5003;62753;40.394;-80.022;2023-04-01T15:52:59;6;5;
74333;PMS5003;62753;40.394;-80.022;2023-04-01T15:55:22;9;7;
74333;PMS5003;62753;40.394;-80.022;2023-04-01T15:57:50;8;7;
74333;PMS5003;62753;40.394;-80.022;2023-04-01T16:00:17;8;6;
74333;PMS5003;62753;40.394;-80.022;2023-04-01T16:02:39;7;6;
74333;PMS5003;62753;40.394;-80.022;2023-04-01T16:05:04;7;6;
74333;PMS5003;62753;40.394;-80.022;2023-04-01T16:07:35;8;7;
74333;PMS5003;62753;40.394;-80.022;2023-04-01T16:09:56;9;9;
74333;PMS5003;62753;40.394;-80.022;2023-04-01T16:12:19;8;8;
74333;PMS5003;62753;40.394;-80.022;2023-04-01T16:14:46;10;9;
74333;PMS5003;62753;40.394;-80.022;2023-04-01T16:17:14;9;8;
74333;PMS5003;62753;40.394;-80.022;2023-04-01T16:19:37;11;10;
74333;PMS5003;62753;40.394;-80.022;2023-04-01T16:22:00;11;9;
74333;PMS5003;62753;40.394;-80.022;2023-04-01T16:24:30;10;8;
74333;PMS5003;62753;40.394;-80.022;2023-04-01T16:26:52;9;7;
74333;PMS5003;62753;40.394;-80.022;2023-04-01T16:29:19;10;8;
74333;PMS5003;62753;40.394;-80.022;2023-04-01T16:31:43;11;9;
74333;PMS5003;62753;40.394;-80.022;2023-04-01T16:34:08;9;7;
74333;PMS5003;62753;40.394;-80.022;2023-04-01T16:36:33;10;8;
74333;PMS5003;62753;40.394;-80.022;2023-04-01T16:41:24;12;11;
74333;PMS5003;62753;40.394;-80.022;2023-04-01T16:43:50;7;6;
74333;PMS5003;62753;40.394;-80.022;2023-04-01T16:46:20;8;8;
74333;PMS5003;62753;40.394;-80.022;2023-04-01T16:51:09;8;7;
74333;PMS5003;62753;40.394;-80.022;2023-04-01T16:53:34;6;6;
74333;PMS5003;62753;40.394;-80.022;2023-04-01T16:55:57;6;6;
74333;PMS5003;62753;40.394;-80.022;2023-04-01T16:58:23;6;5;
74333;PMS5003;62753;40.394;-80.022;2023-04-01T17:00:48;10;8;
74333;PMS5003;62753;40.394;-80.022;2023-04-01T17:03:13;7;6;
74333;PMS5003;62753;40.394;-80.022;2023-04-01T17:05:40;6;5;
74333;PMS5003;62753;40.394;-80.022;2023-04-01T17:08:05;7;7;
74333;PMS5003;62753;40.394;-80.022;2023-04-01T17:10:33;13;8;
74333;PMS5003;62753;40.394;-80.022;2023-04-01T17:12:58;7;6;
74333;PMS5003;62753;40.394;-80.022;2023-04-01T17:15:21;9;9;
74333;PMS5003;62753;40.394;-80.022;2023-04-01T17:17:47;9;7;
74333;PMS5003;62753;40.394;-80.022;2023-04-01T17:20:13;7;7;
74333;PMS5003;62753;40.394;-80.022;2023-04-01T17:22:38;8;6;
74333;PMS5003;62753;40.394;-80.022;2023-04-01T17:25:08;6;6;
74333;PMS5003;62753;40.394;-80.022;2023-04-01T17:27:30;8;6;
74333;PMS5003;62753;40.394;-80.022;2023-04-01T17:29:59;7;7;